Terminal Aerodrome Forecast
Issued by NWS

Home | Current Version | Previous Version | Text Only | Print | Product List | Glossary On
Versions: 1 2 3 4 5 6 7 8 9 10 11 12 13 14
000
FTUS43 KBIS 222327
TAFMOT
TAF
KMOT 222327Z 2300/2324 28027G38KT P6SM VCSH SCT045 BKN080
     FM230200 30024G35KT P6SM VCSH BKN035 BKN060
     FM230400 30024G37KT P6SM BKN025 OVC035
     FM231400 30022G33KT P6SM FEW030 SCT045=

USA.gov is the U.S. government's official web portal to all federal, state and local government web resources and services.